Aviation Digital Data Service (ADDS)

Output produced by TAFs form (0424 UTC 28 March 2017)
found at http://www.aviationweather.gov/adds/tafs/
 
KALB 280251Z 2803/2824 00000KT P6SM SCT015 OVC025 
     FM280500 VRB03KT 3SM BR SCT007 OVC015 
     FM280900 VRB03KT 1 1/2SM BR BKN007 OVC015 
     FM281500 VRB03KT 2SM -SHRA BR OVC007